createdAt,value
2022-10-17T00:01:54.578Z,4.68
2022-10-17T00:06:56.150Z,5.90
2022-10-17T00:11:57.682Z,4.35
2022-10-17T00:16:59.183Z,4.78
2022-10-17T00:22:00.711Z,4.30
2022-10-17T00:27:02.259Z,4.38
2022-10-17T00:32:03.812Z,4.10
2022-10-17T00:37:05.469Z,4.20
2022-10-17T00:42:07.120Z,3.80
2022-10-17T00:47:13.859Z,6.18
2022-10-17T00:52:21.451Z,4.82
2022-10-17T00:57:22.991Z,6.10
2022-10-17T01:02:25.248Z,8.73
2022-10-17T01:07:30.810Z,6.13
2022-10-17T01:12:59.528Z,4.32
2022-10-17T01:18:22.279Z,8.15
2022-10-17T01:23:35.774Z,5.97
2022-10-17T01:29:11.013Z,6.72
2022-10-17T01:34:22.135Z,7.65
2022-10-17T01:39:28.106Z,6.05
2022-10-17T01:45:00.141Z,7.80
2022-10-17T01:50:14.115Z,6.80
2022-10-17T01:55:22.911Z,7.93
2022-10-17T02:00:26.245Z,10.25
2022-10-17T02:05:39.168Z,10.75
2022-10-17T02:11:01.975Z,11.02
2022-10-17T02:16:15.489Z,11.05
2022-10-17T02:21:41.966Z,12.48
2022-10-17T02:26:58.532Z,14.43
2022-10-17T02:32:04.593Z,13.98
2022-10-17T02:37:08.063Z,13.93
2022-10-17T02:42:11.672Z,16.98
2022-10-17T02:47:25.698Z,15.70
2022-10-17T02:52:31.032Z,17.33
2022-10-17T02:57:40.380Z,17.45
2022-10-17T03:02:52.937Z,17.52
2022-10-17T03:07:55.531Z,19.88
2022-10-17T03:12:58.808Z,18.40
2022-10-17T03:18:00.450Z,20.05
2022-10-17T03:23:02.214Z,19.58
2022-10-17T03:28:05.516Z,19.35
2022-10-17T03:33:07.838Z,21.67
2022-10-17T03:38:09.476Z,19.63
2022-10-17T03:43:11.880Z,19.92
2022-10-17T03:48:14.728Z,20.85
2022-10-17T03:53:16.462Z,20.75
2022-10-17T03:58:18.070Z,21.08
2022-10-17T04:03:19.689Z,20.05
2022-10-17T04:08:22.170Z,23.33
2022-10-17T04:13:38.976Z,21.90
2022-10-17T04:18:41.678Z,23.08
2022-10-17T04:23:43.367Z,23.25
2022-10-17T04:28:56.557Z,22.25
2022-10-17T04:33:58.144Z,27.02
2022-10-17T04:39:02.910Z,23.05
2022-10-17T04:44:05.489Z,22.15
2022-10-17T04:49:11.250Z,23.77
2022-10-17T04:54:17.118Z,22.98
2022-10-17T04:59:22.189Z,24.75
2022-10-17T05:04:33.308Z,25.48
2022-10-17T05:09:35.412Z,24.67
2022-10-17T05:14:36.920Z,25.25
2022-10-17T05:19:38.942Z,27.50
2022-10-17T05:24:41.973Z,26.33
2022-10-17T05:29:45.649Z,28.13
2022-10-17T05:34:59.026Z,24.50
2022-10-17T05:40:01.436Z,27.73
2022-10-17T05:45:05.070Z,27.85
2022-10-17T05:50:08.530Z,27.02
2022-10-17T05:55:24.701Z,29.02
2022-10-17T06:00:26.877Z,26.85
2022-10-17T06:05:35.308Z,27.55
2022-10-17T06:10:38.458Z,26.15
2022-10-17T06:15:40.335Z,30.48
2022-10-17T06:20:45.409Z,27.58
2022-10-17T06:25:49.366Z,28.35
2022-10-17T06:30:51.814Z,27.65
2022-10-17T06:35:54.824Z,29.38
2022-10-17T06:41:09.641Z,28.10
2022-10-17T06:46:11.265Z,28.55
2022-10-17T06:51:16.800Z,28.02
2022-10-17T06:56:28.841Z,26.95
2022-10-17T07:01:46.086Z,26.88
2022-10-17T07:06:49.303Z,27.33
2022-10-17T07:11:54.063Z,33.30
2022-10-17T07:16:56.715Z,27.23
2022-10-17T07:21:59.781Z,26.48
2022-10-17T07:27:02.206Z,26.48
2022-10-17T07:32:06.454Z,26.65
2022-10-17T07:37:09.939Z,30.92
2022-10-17T07:42:14.567Z,26.23
2022-10-17T07:47:16.365Z,26.02
2022-10-17T07:52:18.479Z,26.30
2022-10-17T07:57:19.966Z,26.88
2022-10-17T08:02:24.499Z,26.27
2022-10-17T08:07:29.372Z,25.55
2022-10-17T08:12:34.192Z,25.98
2022-10-17T08:17:37.114Z,25.05
2022-10-17T08:22:38.606Z,23.45
2022-10-17T08:27:40.104Z,25.23
2022-10-17T08:32:41.996Z,25.30
2022-10-17T08:37:43.667Z,24.67
2022-10-17T08:43:10.939Z,24.10
2022-10-17T08:48:21.644Z,24.52
2022-10-17T08:53:38.505Z,22.85
2022-10-17T08:58:40.045Z,23.85
2022-10-17T09:04:12.955Z,25.10
2022-10-17T09:09:36.633Z,25.30
2022-10-17T09:14:48.734Z,22.98
2022-10-17T09:20:00.860Z,26.48
2022-10-17T09:25:07.291Z,23.20
2022-10-17T09:30:45.799Z,24.13
2022-10-17T09:35:48.578Z,23.67
2022-10-17T09:40:57.868Z,24.45
2022-10-17T09:46:22.615Z,22.58
2022-10-17T09:51:26.175Z,23.23
2022-10-17T09:56:28.038Z,22.98
2022-10-17T10:01:31.188Z,23.35
2022-10-17T10:06:33.066Z,23.58
2022-10-17T10:11:49.877Z,23.45
2022-10-17T10:16:53.749Z,23.00
2022-10-17T10:22:25.387Z,21.25
2022-10-17T10:27:27.935Z,23.10
2022-10-17T10:32:32.359Z,21.70
2022-10-17T10:37:40.159Z,22.00
2022-10-17T10:42:42.280Z,21.75
2022-10-17T10:47:58.648Z,21.20
2022-10-17T10:53:24.859Z,19.27
2022-10-17T10:58:42.026Z,20.75
2022-10-17T11:04:12.329Z,19.63
2022-10-17T11:09:24.282Z,20.13
2022-10-17T11:14:41.860Z,21.40
2022-10-17T11:19:56.491Z,20.63
2022-10-17T11:24:59.773Z,19.25
2022-10-17T11:30:01.710Z,19.25
2022-10-17T11:35:15.361Z,19.38
2022-10-17T11:40:31.382Z,20.27
2022-10-17T11:45:41.008Z,18.75
2022-10-17T11:56:10.023Z,19.20
2022-10-17T12:01:26.495Z,18.50
2022-10-17T12:06:48.099Z,17.50
2022-10-17T12:12:00.496Z,17.48
2022-10-17T12:17:02.706Z,16.92
2022-10-17T12:22:20.162Z,15.57
2022-10-17T12:27:32.700Z,16.30
2022-10-17T12:33:00.480Z,16.60
2022-10-17T12:37:58.771Z,16.73
2022-10-17T12:43:16.300Z,16.15
2022-10-17T12:48:36.295Z,16.55
2022-10-17T12:53:45.262Z,17.45
2022-10-17T12:58:49.127Z,22.80
2022-10-17T13:03:52.493Z,17.02
2022-10-17T13:09:04.161Z,17.45
2022-10-17T13:14:13.099Z,16.40
2022-10-17T13:19:17.748Z,17.15
2022-10-17T13:24:23.782Z,16.38
2022-10-17T13:29:25.956Z,17.48
2022-10-17T13:34:28.100Z,19.60
2022-10-17T13:39:52.447Z,18.77
2022-10-17T13:44:55.967Z,17.40
2022-10-17T13:49:58.066Z,18.77
2022-10-17T13:55:11.081Z,18.15
2022-10-17T14:00:20.861Z,16.48
2022-10-17T14:05:23.677Z,15.65
2022-10-17T14:10:27.461Z,15.40
2022-10-17T14:15:30.955Z,15.98
2022-10-17T14:21:29.209Z,17.75
2022-10-17T14:26:21.473Z,17.10
2022-10-17T14:31:26.108Z,17.10
2022-10-17T14:36:38.549Z,16.45
2022-10-17T14:41:44.215Z,16.30
2022-10-17T14:46:50.498Z,16.63
2022-10-17T14:52:18.382Z,17.27
2022-10-17T14:57:29.103Z,18.55
2022-10-17T15:02:31.144Z,19.50
2022-10-17T15:07:32.854Z,18.98
2022-10-17T15:12:34.454Z,19.08
2022-10-17T15:17:35.970Z,19.25
2022-10-17T15:22:37.484Z,19.58
2022-10-17T15:27:39.064Z,18.92
2022-10-17T15:32:40.562Z,19.65
2022-10-17T15:37:42.912Z,22.42
2022-10-17T15:42:44.518Z,19.05
2022-10-17T15:47:51.646Z,20.38
2022-10-17T15:52:53.486Z,20.83
2022-10-17T15:57:55.001Z,21.10
2022-10-17T16:02:56.546Z,19.85
2022-10-17T16:07:58.373Z,21.05
2022-10-17T16:12:59.856Z,20.23
2022-10-17T16:18:04.238Z,23.75
2022-10-17T16:23:08.450Z,20.42
2022-10-17T16:28:11.842Z,21.05
2022-10-17T16:33:13.577Z,23.00
2022-10-17T16:38:15.146Z,22.02
2022-10-17T16:43:16.634Z,21.17
2022-10-17T16:48:18.183Z,22.10
2022-10-17T16:53:19.729Z,21.75
2022-10-17T16:58:21.226Z,22.40
2022-10-17T17:03:22.744Z,23.23
2022-10-17T17:08:24.305Z,21.58
2022-10-17T17:13:26.552Z,22.83
2022-10-17T17:18:28.700Z,22.73
2022-10-17T17:23:31.028Z,22.95
2022-10-17T17:28:33.571Z,23.17
2022-10-17T17:33:35.152Z,26.70
2022-10-17T17:38:36.960Z,24.60
2022-10-17T17:43:38.438Z,27.10
2022-10-17T17:48:41.082Z,24.60
2022-10-17T17:53:42.607Z,24.35
2022-10-17T17:58:46.637Z,25.30
2022-10-17T18:03:49.866Z,23.75
2022-10-17T18:08:53.532Z,25.52
2022-10-17T18:13:56.856Z,25.85
2022-10-17T18:19:02.608Z,25.08
2022-10-17T18:24:07.851Z,25.25
2022-10-17T18:29:09.401Z,25.25
2022-10-17T18:34:10.893Z,25.30
2022-10-17T18:39:12.427Z,24.85
2022-10-17T18:44:15.437Z,25.30
2022-10-17T18:49:25.034Z,25.90
2022-10-17T18:54:26.795Z,26.02
2022-10-17T18:59:28.330Z,26.60
2022-10-17T19:04:29.844Z,26.63
2022-10-17T19:09:31.473Z,27.17
2022-10-17T19:14:33.005Z,26.65
2022-10-17T19:19:34.576Z,27.42
2022-10-17T19:24:36.105Z,27.05
2022-10-17T19:29:38.012Z,26.88
2022-10-17T19:34:39.498Z,27.55
2022-10-17T19:39:40.969Z,28.08
2022-10-17T19:44:42.462Z,27.45
2022-10-17T19:49:49.064Z,27.30
2022-10-17T19:54:51.508Z,29.30
2022-10-17T19:59:55.830Z,29.92
2022-10-17T20:05:13.890Z,27.13
2022-10-17T20:10:19.272Z,28.13
2022-10-17T20:15:20.806Z,27.13
2022-10-17T20:20:22.337Z,27.83
2022-10-17T20:25:23.909Z,28.73
2022-10-17T20:30:25.584Z,28.02
2022-10-17T20:35:27.137Z,27.23
2022-10-17T20:40:36.112Z,29.95
2022-10-17T20:45:50.649Z,30.40
2022-10-17T20:50:53.618Z,26.88
2022-10-17T20:56:07.206Z,27.45
2022-10-17T21:01:10.118Z,30.02
2022-10-17T21:06:11.736Z,27.00
2022-10-17T21:11:19.037Z,27.20
2022-10-17T21:16:20.609Z,27.48
2022-10-17T21:21:26.617Z,28.10
2022-10-17T21:26:29.154Z,28.02
2022-10-17T21:31:30.894Z,28.13
2022-10-17T21:36:32.489Z,29.33
2022-10-17T21:41:34.129Z,29.35
2022-10-17T21:46:35.609Z,28.88
2022-10-17T21:51:37.136Z,26.95
2022-10-17T21:56:38.702Z,26.65
2022-10-17T22:01:43.909Z,28.42
2022-10-17T22:06:47.558Z,29.92
2022-10-17T22:11:51.851Z,30.73
2022-10-17T22:16:53.625Z,34.53
2022-10-17T22:21:55.161Z,32.03
2022-10-17T22:26:56.722Z,29.50
2022-10-17T22:31:58.476Z,28.90
2022-10-17T22:37:00.185Z,30.70
2022-10-17T22:42:01.695Z,30.70
2022-10-17T22:47:03.365Z,31.40
2022-10-17T22:52:04.980Z,32.85
2022-10-17T22:57:06.520Z,30.35
2022-10-17T23:02:08.043Z,27.90
2022-10-17T23:07:13.965Z,29.02
2022-10-17T23:12:15.473Z,29.92
2022-10-17T23:17:17.016Z,28.15
2022-10-17T23:22:18.527Z,31.33
2022-10-17T23:27:20.094Z,30.83
2022-10-17T23:32:21.609Z,31.15
2022-10-17T23:37:23.147Z,28.63
2022-10-17T23:42:24.713Z,33.08
2022-10-17T23:47:26.213Z,28.92
2022-10-17T23:52:27.754Z,27.73
2022-10-17T23:57:29.617Z,28.27
